Marco, Indiana
Current Conditions -  °F | °C
As of 2:55 PM on Friday 24 Oct 2014 (Local Time) from KDCY Reporting Station
Clear Clear  
Wind Chill: 67°   Ceiling: Unl
Heat Index: 67°   Visibility: 10mi
Dew Point: 50°   Wind: 5mph
Humidity: 56%   Direction: 230°SW
Pressure: 30.05"   Gusts: NA
Location:  38.9575°N, 87.1158°W
Report Text: KDCY 241855Z AUTO 23004KT 10SM CLR 19/10 A3005 RMK AO2 T01920102
Loading
Personal Weather Stations






























Interactive Weather Map
Tropical Storm Tracking
New forecast layout! Learn more

10-Day Weather Forecast

Advertisements
Track Severe Weather on mobile